Time;durP1;ratioP1;P1;durP2;ratioP2;P2;SDS_P1;SDS_P2;PMS_P1;PMS_P2;Temp;Humidity;BMP_temperature;BMP_pressure;BME280_temperature;BME280_humidity;BME280_pressure;Samples;Min_cycle;Max_cycle;Signal;HPM_P1;HPM_P2
2023/10/28 00:01:14;;;;;;;0.55;0.52;;;;;;;10.04;100.00;151199.84;10481236;28;20048;-73
2023/10/28 00:06:15;;;;;;;0.43;0.43;;;;;;;9.88;100.00;151157.28;10499880;28;20048;-73
2023/10/28 00:11:19;;;;;;;0.60;0.50;;;;;;;9.84;100.00;151149.53;10481017;28;20045;-72
2023/10/28 00:16:21;;;;;;;1.42;0.73;;;;;;;9.73;100.00;151121.13;10481291;28;20504;-73
2023/10/28 00:21:23;;;;;;;1.05;0.50;;;;;;;9.67;100.00;151104.38;10487683;28;20427;-72
2023/10/28 00:26:25;;;;;;;1.05;0.75;;;;;;;9.59;100.00;151085.00;10506826;28;20056;-72
2023/10/28 00:31:28;;;;;;;0.52;0.43;;;;;;;9.52;100.00;151066.97;10488204;28;20048;-72
2023/10/28 00:36:30;;;;;;;0.63;0.50;;;;;;;9.53;100.00;151070.81;10506341;28;20032;-71
2023/10/28 00:41:32;;;;;;;0.73;0.50;;;;;;;9.68;100.00;151106.94;10506235;28;20047;-73
2023/10/28 00:46:34;;;;;;;0.50;0.40;;;;;;;9.73;100.00;151119.81;10505927;28;20111;-74
2023/10/28 00:51:37;;;;;;;0.40;0.30;;;;;;;9.81;100.00;151141.78;10487866;28;20143;-72
2023/10/28 00:56:39;;;;;;;0.82;0.40;;;;;;;9.92;100.00;151168.91;10505678;28;20068;-72
2023/10/28 01:01:41;;;;;;;0.47;0.45;;;;;;;9.94;100.00;151172.75;10486884;28;20060;-72
2023/10/28 01:06:45;;;;;;;0.30;0.30;;;;;;;9.89;100.00;151161.13;10505210;28;20036;-73
2023/10/28 01:11:47;;;;;;;1.13;0.30;;;;;;;9.97;100.00;151180.50;10486987;28;20083;-73
2023/10/28 01:16:51;;;;;;;0.85;0.43;;;;;;;10.02;100.00;151193.41;10486417;28;20142;-73
2023/10/28 01:21:54;;;;;;;0.98;0.38;;;;;;;9.91;100.00;151166.28;10486597;28;20078;-73
2023/10/28 01:26:56;;;;;;;0.82;0.30;;;;;;;9.85;100.00;151150.81;10486433;28;20098;-73
2023/10/28 01:31:57;;;;;;;0.93;0.50;;;;;;;9.71;100.00;151115.97;10485440;28;20044;-72
2023/10/28 01:36:59;;;;;;;0.98;0.30;;;;;;;9.70;100.00;151113.41;10503626;28;20487;-72
2023/10/28 01:42:03;;;;;;;4.78;0.43;;;;;;;9.74;100.00;151123.72;10485903;28;20048;-74
2023/10/28 01:47:05;;;;;;;1.38;0.32;;;;;;;9.60;100.00;151087.56;10503423;28;20098;-73
2023/10/28 01:52:09;;;;;;;1.15;0.30;;;;;;;9.72;100.00;151118.53;10485275;28;20569;-73
2023/10/28 01:57:11;;;;;;;0.47;0.38;;;;;;;9.60;100.00;151087.56;10502910;28;20036;-73
2023/10/28 02:02:12;;;;;;;1.05;0.38;;;;;;;9.39;100.00;151033.41;10484844;28;20056;-73
2023/10/28 02:07:14;;;;;;;0.30;0.30;;;;;;;9.62;100.00;151092.75;10502676;28;20458;-73
2023/10/28 02:12:16;;;;;;;0.68;0.30;;;;;;;9.39;100.00;151034.72;10502246;28;20127;-73
2023/10/28 02:17:18;;;;;;;0.77;0.50;;;;;;;9.16;100.00;150976.63;10484278;28;20128;-73
2023/10/28 02:22:20;;;;;;;0.75;0.50;;;;;;;9.28;100.00;151007.59;10485511;28;20389;-73
2023/10/28 02:27:23;;;;;;;0.65;0.30;;;;;;;9.28;100.00;151007.59;10484100;28;20127;-73
2023/10/28 02:32:25;;;;;;;1.05;0.63;;;;;;;9.33;100.00;151020.47;10502126;28;20136;-73
2023/10/28 02:37:27;;;;;;;1.90;0.63;;;;;;;9.25;100.00;150999.88;10483566;28;20045;-73
2023/10/28 02:42:28;;;;;;;0.60;0.47;;;;;;;9.36;100.00;151026.94;10483397;28;20052;-73
2023/10/28 02:47:31;;;;;;;0.70;0.40;;;;;;;9.32;100.00;151016.63;10483088;28;20036;-73
2023/10/28 02:52:33;;;;;;;1.15;0.32;;;;;;;9.15;100.00;150972.78;10483181;28;20117;-73
2023/10/28 02:57:35;;;;;;;0.93;0.38;;;;;;;9.25;100.00;150999.88;10501265;28;20040;-72
2023/10/28 03:02:37;;;;;;;1.15;0.32;;;;;;;9.30;100.00;151011.50;10483964;28;20044;-73
2023/10/28 03:07:39;;;;;;;2.45;0.40;;;;;;;9.27;100.00;151003.75;10482828;28;20040;-73
2023/10/28 03:12:40;;;;;;;2.13;0.65;;;;;;;9.13;100.00;150968.91;10482363;28;20044;-73
2023/10/28 03:17:42;;;;;;;1.15;0.50;;;;;;;9.16;100.00;150976.63;10500663;28;20232;-73
2023/10/28 03:22:44;;;;;;;0.82;0.40;;;;;;;9.17;100.00;150979.25;10500404;28;20385;-73
2023/10/28 03:27:46;;;;;;;0.50;0.40;;;;;;;9.17;100.00;150979.25;10481641;28;20051;-73
2023/10/28 03:32:49;;;;;;;0.98;0.30;;;;;;;9.32;100.00;151016.63;10500665;28;20040;-72
2023/10/28 03:37:51;;;;;;;1.23;0.52;;;;;;;9.29;100.00;151010.16;10482122;28;20041;-73
2023/10/28 03:42:53;;;;;;;0.65;0.40;;;;;;;9.35;100.00;151024.38;10499149;28;20050;-74
2023/10/28 03:47:55;;;;;;;0.60;0.30;;;;;;;9.45;100.00;151048.88;10498634;28;20040;-73
2023/10/28 03:52:57;;;;;;;0.45;0.40;;;;;;;9.38;100.00;151032.09;10500747;28;20044;-72
2023/10/28 03:57:58;;;;;;;1.23;0.40;;;;;;;9.35;100.00;151024.38;10499689;28;20036;-73
2023/10/28 04:03:00;;;;;;;0.65;0.30;;;;;;;9.54;100.00;151072.09;10499499;28;20060;-73
2023/10/28 04:08:02;;;;;;;1.25;0.40;;;;;;;9.65;100.00;151099.19;10499468;28;20479;-72
2023/10/28 04:13:04;;;;;;;1.05;0.30;;;;;;;9.62;100.00;151091.47;10500324;28;20059;-72
2023/10/28 04:18:06;;;;;;;1.42;0.40;;;;;;;9.63;100.00;151094.03;10481945;28;20090;-72
2023/10/28 04:23:07;;;;;;;1.08;0.43;;;;;;;9.76;100.00;151127.59;10499115;28;20051;-73
2023/10/28 04:28:09;;;;;;;1.27;0.38;;;;;;;9.83;100.00;151146.94;10481874;28;20033;-73
2023/10/28 04:33:12;;;;;;;0.73;0.40;;;;;;;9.90;100.00;151163.72;10498777;28;20128;-73
2023/10/28 04:38:13;;;;;;;1.00;0.40;;;;;;;9.90;100.00;151162.41;10498193;28;20045;-73
2023/10/28 04:43:15;;;;;;;1.05;0.50;;;;;;;9.94;100.00;151172.75;10498075;28;20583;-73
2023/10/28 04:48:18;;;;;;;1.55;0.50;;;;;;;10.06;100.00;151203.75;10498593;28;20549;-72
2023/10/28 04:53:20;;;;;;;2.42;0.55;;;;;;;10.03;100.00;151197.25;10500031;28;20124;-73
2023/10/28 04:58:24;;;;;;;0.60;0.30;;;;;;;10.10;100.00;151214.06;10499376;28;20071;-73
2023/10/28 05:03:25;;;;;;;0.85;0.40;;;;;;;10.07;100.00;151206.31;10499298;28;20036;-73
2023/10/28 05:08:28;;;;;;;0.73;0.50;;;;;;;10.25;100.00;151251.53;10488305;28;20087;-72
2023/10/28 05:13:30;;;;;;;0.50;0.30;;;;;;;10.38;100.00;151283.81;10507385;28;20051;-72
2023/10/28 05:18:32;;;;;;;1.00;0.30;;;;;;;10.26;100.00;151254.09;10489798;28;20048;-74
2023/10/28 05:23:34;;;;;;;1.60;0.50;;;;;;;10.39;100.00;151287.66;10507823;28;20079;-74
2023/10/28 05:28:36;;;;;;;0.80;0.35;;;;;;;10.41;100.00;151292.84;10488733;28;20052;-72
2023/10/28 05:33:39;;;;;;;2.22;0.65;;;;;;;10.39;100.00;151287.66;10506624;28;20060;-72
2023/10/28 05:38:41;;;;;;;0.75;0.50;;;;;;;10.40;100.00;151288.94;10506083;28;20045;-72
2023/10/28 05:43:43;;;;;;;1.45;0.43;;;;;;;10.41;100.00;151292.84;10506218;28;20043;-72
2023/10/28 05:48:45;;;;;;;0.70;0.50;;;;;;;10.51;100.00;151318.66;10487795;28;20116;-72
2023/10/28 05:53:47;;;;;;;0.68;0.40;;;;;;;10.57;100.00;151334.13;10487263;28;20041;-72
2023/10/28 05:58:48;;;;;;;0.95;0.50;;;;;;;10.56;100.00;151330.28;10504201;28;20051;-72
2023/10/28 06:03:50;;;;;;;0.85;0.35;;;;;;;10.61;100.00;151343.19;10504330;28;20048;-73
2023/10/28 06:08:52;;;;;;;1.10;0.50;;;;;;;10.63;100.00;151347.09;10486301;28;20037;-73
2023/10/28 06:13:54;;;;;;;0.52;0.32;;;;;;;10.64;100.00;151350.94;10503331;28;20051;-73
2023/10/28 06:18:56;;;;;;;0.77;0.50;;;;;;;10.69;100.00;151362.56;10504416;28;20455;-71
2023/10/28 06:23:58;;;;;;;6.05;2.90;;;;;;;10.67;100.00;151358.72;10503158;28;20408;-71
2023/10/28 06:29:00;;;;;;;0.68;0.50;;;;;;;10.61;100.00;151343.19;10486238;28;20099;-72
2023/10/28 06:34:05;;;;;;;1.85;0.50;;;;;;;10.59;100.00;151339.31;10485311;28;20064;-71
2023/10/28 06:39:10;;;;;;;1.30;0.80;;;;;;;10.61;100.00;151343.19;10502354;28;20033;-71
2023/10/28 06:44:12;;;;;;;1.38;0.50;;;;;;;10.63;100.00;151347.09;10484445;28;20051;-71
2023/10/28 06:49:14;;;;;;;1.35;0.40;;;;;;;10.64;100.00;151350.94;10484953;28;20051;-72
2023/10/28 06:54:16;;;;;;;1.48;0.95;;;;;;;10.61;100.00;151344.47;10486915;28;20388;-71
2023/10/28 06:59:17;;;;;;;1.30;0.47;;;;;;;10.58;100.00;151335.41;10508152;28;20041;-73
2023/10/28 07:04:22;;;;;;;0.95;0.40;;;;;;;10.81;100.00;151394.84;10502566;28;20049;-70
2023/10/28 07:09:24;;;;;;;1.20;0.50;;;;;;;10.74;100.00;151376.75;10484538;28;20045;-71
2023/10/28 07:14:26;;;;;;;0.65;0.43;;;;;;;10.91;100.00;151418.09;10501431;28;20048;-70
2023/10/28 07:19:27;;;;;;;0.47;0.32;;;;;;;10.90;100.00;151415.53;10502695;28;20041;-71
2023/10/28 07:24:29;;;;;;;0.50;0.47;;;;;;;10.91;100.00;151419.38;10501371;28;20127;-70
2023/10/28 07:29:31;;;;;;;0.77;0.40;;;;;;;10.96;100.00;151432.28;10483657;28;20051;-69
2023/10/28 07:34:33;;;;;;;1.48;1.05;;;;;;;10.98;100.00;151436.16;10501502;28;20048;-70
2023/10/28 07:39:35;;;;;;;0.68;0.45;;;;;;;11.03;100.00;151450.41;10501534;28;20551;-70
2023/10/28 07:44:37;;;;;;;0.10;0.10;;;;;;;11.05;100.00;151454.25;10501644;28;20075;-70
2023/10/28 07:49:38;;;;;;;0.52;0.47;;;;;;;11.04;100.00;151452.97;10485967;28;20101;-70
2023/10/28 07:54:41;;;;;;;1.15;0.30;;;;;;;11.10;100.00;151468.44;10505406;28;20051;-71
2023/10/28 07:59:44;;;;;;;1.08;0.68;;;;;;;11.20;100.00;151493.03;10505320;28;20075;-71
2023/10/28 08:04:47;;;;;;;0.30;0.30;;;;;;;11.26;100.00;151508.50;10502505;28;20045;-70
2023/10/28 08:09:49;;;;;;;0.82;0.60;;;;;;;11.33;100.00;151525.28;10500955;28;20116;-71
2023/10/28 08:14:52;;;;;;;0.40;0.30;;;;;;;11.51;100.00;151570.50;10499335;28;20463;-71
2023/10/28 08:19:54;;;;;;;0.52;0.30;;;;;;;11.62;100.00;151600.22;10483165;28;20071;-70
2023/10/28 08:24:56;;;;;;;0.95;0.32;;;;;;;11.62;100.00;151600.22;10499771;28;20051;-71
2023/10/28 08:30:01;;;;;;;0.65;0.15;;;;;;;11.81;100.00;151646.75;10483105;28;20051;-71
2023/10/28 08:35:03;;;;;;;0.10;0.10;;;;;;;11.81;100.00;151648.03;10498259;28;20044;-70
2023/10/28 08:40:08;;;;;;;0.45;0.40;;;;;;;11.92;100.00;151673.97;10502998;28;20090;-71
2023/10/28 08:45:11;;;;;;;0.50;0.30;;;;;;;11.90;100.00;151668.78;10506473;28;20411;-71
2023/10/28 08:50:17;;;;;;;0.17;0.10;;;;;;;11.86;100.00;151659.72;10506665;28;20037;-71
2023/10/28 08:55:20;;;;;;;1.70;0.20;;;;;;;11.87;100.00;151662.34;10506678;28;20053;-69
2023/10/28 09:00:25;;;;;;;1.55;0.20;;;;;;;11.90;100.00;151668.78;10506549;28;20040;-71
2023/10/28 09:05:28;;;;;;;0.10;0.05;;;;;;;12.08;100.00;151716.59;10489479;28;20052;-70
2023/10/28 09:10:31;;;;;;;0.10;0.10;;;;;;;12.17;98.65;151737.28;10508183;28;20041;-72
2023/10/28 09:15:34;;;;;;;0.30;0.17;;;;;;;12.14;99.84;151729.56;10507354;28;20430;-70
2023/10/28 09:20:42;;;;;;;0.10;0.10;;;;;;;12.41;94.48;151798.06;10508262;28;20040;-70
2023/10/28 09:25:44;;;;;;;0.30;0.30;;;;;;;12.42;98.30;151801.94;10507814;28;20126;-71
2023/10/28 09:30:47;;;;;;;0.10;0.10;;;;;;;12.45;97.75;151809.69;10508007;28;20515;-71
2023/10/28 09:35:53;;;;;;;0.57;0.25;;;;;;;12.29;98.95;151769.59;10489482;28;20560;-71
2023/10/28 09:40:58;;;;;;;0.22;0.10;;;;;;;12.22;97.51;151751.53;10507614;28;20047;-71
2023/10/28 09:46:01;;;;;;;0.45;0.20;;;;;;;12.18;97.74;151741.19;10487688;28;20501;-71
2023/10/28 09:51:02;;;;;;;0.10;0.10;;;;;;;12.20;99.15;151745.03;10507088;28;20047;-71
2023/10/28 09:56:05;;;;;;;0.50;0.30;;;;;;;12.20;99.66;151745.03;10504384;28;20128;-72
2023/10/28 10:01:35;;;;;;;0.57;0.30;;;;;;;12.43;100.00;151804.50;10485923;28;20436;-71
2023/10/28 10:06:37;;;;;;;0.15;0.10;;;;;;;12.68;100.00;151866.59;10503641;28;20063;-71
2023/10/28 10:11:45;;;;;;;1.10;0.20;;;;;;;13.02;89.45;151954.56;10502894;28;20037;-70
2023/10/28 10:17:22;;;;;;;0.38;0.28;;;;;;;13.34;87.63;152034.78;10502888;28;20044;-71
2023/10/28 10:22:29;;;;;;;0.47;0.30;;;;;;;13.79;82.77;152148.66;10336029;28;20054;-71
2023/10/28 10:27:36;;;;;;;0.70;0.20;;;;;;;14.33;80.27;152287.16;10334867;28;20510;-71
2023/10/28 10:32:49;;;;;;;0.28;0.28;;;;;;;14.69;74.24;152376.56;10337714;28;20077;-72
2023/10/28 10:38:13;;;;;;;0.90;0.40;;;;;;;14.55;72.91;152342.91;10335073;28;20141;-72
2023/10/28 10:43:21;;;;;;;0.95;0.43;;;;;;;14.66;76.70;152368.84;10318955;28;20070;-70
2023/10/28 10:48:27;;;;;;;0.40;0.25;;;;;;;14.97;72.52;152447.84;10333355;28;20053;-71
2023/10/28 10:53:42;;;;;;;0.60;0.38;;;;;;;14.68;70.47;152375.28;10330562;28;20046;-71
2023/10/28 10:58:44;;;;;;;1.50;0.52;;;;;;;14.46;73.45;152318.25;10462441;28;20056;-72
2023/10/28 11:03:46;;;;;;;1.20;0.50;;;;;;;14.27;72.63;152271.66;10499527;28;20076;-72
2023/10/28 11:08:48;;;;;;;1.75;0.85;;;;;;;14.20;73.70;152252.22;10502044;28;20129;-71
2023/10/28 11:13:50;;;;;;;0.30;0.20;;;;;;;14.26;74.25;152267.78;10501046;28;20481;-71
2023/10/28 11:18:52;;;;;;;1.33;0.82;;;;;;;14.68;71.85;152373.97;10500109;28;20044;-70
2023/10/28 11:23:54;;;;;;;0.30;0.30;;;;;;;15.12;68.66;152487.97;10501149;28;20448;-70
2023/10/28 11:28:59;;;;;;;1.10;0.55;;;;;;;15.32;68.26;152537.22;10500599;28;20043;-71
2023/10/28 11:34:04;;;;;;;0.45;0.30;;;;;;;15.46;65.64;152572.22;10500292;28;20503;-72
2023/10/28 11:39:13;;;;;;;0.43;0.30;;;;;;;14.98;64.72;152451.72;10464996;28;20041;-71
2023/10/28 11:44:16;;;;;;;0.52;0.38;;;;;;;14.89;68.17;152428.38;10501342;28;20575;-75
2023/10/28 11:49:18;;;;;;;0.73;0.10;;;;;;;14.74;66.89;152390.84;10483324;28;20415;-72
2023/10/28 11:54:20;;;;;;;1.20;0.73;;;;;;;14.59;67.91;152353.25;10499589;28;20037;-71
2023/10/28 11:59:23;;;;;;;0.73;0.35;;;;;;;14.41;69.19;152305.31;10501974;28;20067;-72
2023/10/28 12:04:25;;;;;;;1.23;0.52;;;;;;;14.18;70.84;152248.34;10500336;28;20068;-72
2023/10/28 12:09:27;;;;;;;0.20;0.20;;;;;;;14.25;70.68;152266.44;10483095;28;20564;-72
2023/10/28 12:14:29;;;;;;;0.80;0.30;;;;;;;14.28;72.70;152274.22;10503042;28;20040;-72
2023/10/28 12:19:33;;;;;;;2.08;1.65;;;;;;;14.25;72.48;152265.16;10509005;28;20040;-73
2023/10/28 12:24:35;;;;;;;1.40;0.63;;;;;;;14.08;71.36;152223.75;10509107;28;20123;-72
2023/10/28 12:29:37;;;;;;;1.00;0.88;;;;;;;14.14;72.60;152239.28;10509144;28;20057;-71
2023/10/28 12:34:39;;;;;;;1.33;0.93;;;;;;;14.12;71.61;152234.13;10509124;28;20123;-70
2023/10/28 12:39:41;;;;;;;1.85;0.85;;;;;;;14.00;71.02;152201.75;10509046;28;20060;-71
2023/10/28 12:44:43;;;;;;;0.77;0.40;;;;;;;14.02;72.29;152208.19;10509127;28;20041;-71
2023/10/28 12:49:48;;;;;;;0.20;0.20;;;;;;;14.01;72.78;152204.31;10508449;28;20051;-71
2023/10/28 12:54:50;;;;;;;0.47;0.20;;;;;;;13.91;72.06;152179.75;10491279;28;20148;-72
2023/10/28 12:59:52;;;;;;;0.20;0.20;;;;;;;13.86;71.29;152166.81;10474670;28;20051;-72
2023/10/28 13:04:54;;;;;;;0.47;0.20;;;;;;;13.81;71.46;152153.81;10508768;28;20059;-70
2023/10/28 13:09:56;;;;;;;0.57;0.20;;;;;;;13.77;71.93;152144.81;10489903;28;20045;-70
2023/10/28 13:14:58;;;;;;;0.40;0.30;;;;;;;13.68;72.82;152120.16;10506752;28;20044;-70
2023/10/28 13:20:00;;;;;;;0.20;0.20;;;;;;;13.78;71.96;152147.38;10510175;28;20492;-71
2023/10/28 13:25:02;;;;;;;0.38;0.20;;;;;;;13.80;73.80;152151.25;10501149;28;20496;-72
2023/10/28 13:30:07;;;;;;;0.30;0.30;;;;;;;13.94;74.77;152187.47;10505226;28;20040;-72
2023/10/28 13:35:11;;;;;;;0.55;0.30;;;;;;;13.98;73.82;152196.53;10501697;28;20044;-71
2023/10/28 13:40:13;;;;;;;0.38;0.28;;;;;;;14.05;72.50;152215.97;10505613;28;20032;-72
2023/10/28 13:45:15;;;;;;;1.13;0.20;;;;;;;14.07;73.32;152221.13;10487808;28;20098;-71
2023/10/28 13:50:17;;;;;;;1.25;0.50;;;;;;;14.15;74.02;152240.56;10506428;28;20395;-71
2023/10/28 13:55:19;;;;;;;0.68;0.30;;;;;;;14.10;73.62;152227.63;10504894;28;20075;-71
2023/10/28 14:00:22;;;;;;;1.75;0.28;;;;;;;14.10;72.87;152228.91;10504897;28;20040;-71
2023/10/28 14:05:24;;;;;;;0.43;0.20;;;;;;;14.10;72.38;152228.91;10504407;28;20094;-71
2023/10/28 14:10:26;;;;;;;0.28;0.20;;;;;;;14.09;71.95;152226.34;10487639;28;20044;-71
2023/10/28 14:15:29;;;;;;;0.45;0.30;;;;;;;13.92;73.36;152181.03;10503935;28;20048;-71
2023/10/28 14:20:31;;;;;;;0.93;0.30;;;;;;;13.74;74.67;152137.03;10485013;28;20416;-68
2023/10/28 14:25:33;;;;;;;1.15;0.40;;;;;;;13.82;72.49;152156.44;10484820;28;20472;-70
2023/10/28 14:30:35;;;;;;;0.40;0.30;;;;;;;13.77;73.58;152143.50;10502829;28;20032;-70
2023/10/28 14:35:36;;;;;;;1.55;0.30;;;;;;;13.74;73.32;152137.03;10503299;28;20129;-69
2023/10/28 14:40:40;;;;;;;1.58;0.30;;;;;;;13.68;72.75;152120.16;10501841;28;20044;-69
2023/10/28 14:45:41;;;;;;;1.00;0.32;;;;;;;13.52;74.14;152080.09;10501249;28;20423;-69
2023/10/28 14:50:47;;;;;;;0.35;0.20;;;;;;;13.46;74.92;152065.88;10501704;28;20044;-69
2023/10/28 14:55:50;;;;;;;0.80;0.47;;;;;;;13.40;77.00;152050.31;10500669;28;20055;-69
2023/10/28 15:00:51;;;;;;;1.52;0.40;;;;;;;13.27;78.22;152016.66;10500655;28;20088;-69
2023/10/28 15:05:53;;;;;;;0.52;0.20;;;;;;;13.35;76.09;152037.38;10500900;28;20098;-69
2023/10/28 15:10:55;;;;;;;0.50;0.28;;;;;;;13.25;76.79;152011.50;10501345;28;20036;-69
2023/10/28 15:15:59;;;;;;;1.10;0.40;;;;;;;13.15;78.27;151986.91;10484407;28;20040;-69
2023/10/28 15:21:14;;;;;;;1.20;0.50;;;;;;;13.20;78.86;151998.53;10499612;28;20044;-69
2023/10/28 15:26:19;;;;;;;1.42;0.60;;;;;;;13.17;79.21;151990.75;10501621;28;20083;-71
2023/10/28 15:31:21;;;;;;;0.50;0.30;;;;;;;13.21;79.04;152001.13;10501652;28;20040;-69
2023/10/28 15:36:23;;;;;;;1.60;0.50;;;;;;;13.11;79.29;151977.84;10502420;28;20057;-70
2023/10/28 15:41:25;;;;;;;0.40;0.40;;;;;;;13.02;79.68;151954.56;10502235;28;20060;-69
2023/10/28 15:46:27;;;;;;;1.17;0.47;;;;;;;12.96;80.21;151939.00;10499413;28;20128;-71
2023/10/28 15:51:29;;;;;;;1.67;0.77;;;;;;;12.96;80.34;151939.00;10498696;28;20049;-69
2023/10/28 15:56:31;;;;;;;0.55;0.50;;;;;;;12.82;80.96;151902.78;10500640;28;20142;-69
2023/10/28 16:01:32;;;;;;;1.33;0.60;;;;;;;12.81;80.41;151900.22;10499838;28;20040;-69
2023/10/28 16:06:34;;;;;;;1.17;0.40;;;;;;;12.65;81.51;151860.09;10499815;28;20047;-70
2023/10/28 16:11:36;;;;;;;1.00;0.47;;;;;;;12.56;83.40;151836.84;10500057;28;20075;-69
2023/10/28 16:16:38;;;;;;;1.10;0.40;;;;;;;12.47;83.77;151814.84;10499624;28;20420;-69
2023/10/28 16:21:42;;;;;;;6.50;0.60;;;;;;;12.33;84.85;151778.66;10483760;28;20504;-70
2023/10/28 16:26:47;;;;;;;1.50;0.30;;;;;;;12.59;81.35;151844.59;10482922;28;20044;-69
2023/10/28 16:31:49;;;;;;;4.85;0.90;;;;;;;12.45;83.55;151809.69;10481869;28;20049;-70
2023/10/28 16:36:52;;;;;;;2.05;0.80;;;;;;;12.07;87.92;151714.00;10500023;28;20050;-70
2023/10/28 16:41:54;;;;;;;1.15;0.95;;;;;;;12.05;87.39;151708.88;10503715;28;20032;-70
2023/10/28 16:46:57;;;;;;;1.98;1.05;;;;;;;12.01;88.74;151697.22;10486057;28;20056;-70
2023/10/28 16:52:00;;;;;;;2.88;1.00;;;;;;;12.04;86.82;151706.28;10503632;28;20049;-69
2023/10/28 16:57:03;;;;;;;2.20;1.38;;;;;;;11.99;86.45;151692.03;10484100;28;20094;-71
2023/10/28 17:02:05;;;;;;;1.70;0.73;;;;;;;12.25;83.59;151759.25;10505906;28;20037;-69
2023/10/28 17:07:07;;;;;;;1.75;0.80;;;;;;;12.20;83.89;151745.03;10510638;28;20052;-68
2023/10/28 17:12:10;;;;;;;3.00;1.27;;;;;;;12.11;83.88;151723.06;10512066;28;20044;-68
2023/10/28 17:17:11;;;;;;;1.80;0.80;;;;;;;12.05;83.70;151708.88;10492528;28;20485;-68
2023/10/28 17:22:13;;;;;;;2.47;0.80;;;;;;;12.07;83.68;151712.72;10510369;28;20469;-70
2023/10/28 17:27:15;;;;;;;1.10;0.65;;;;;;;12.08;82.86;151715.28;10509466;28;20420;-70
2023/10/28 17:32:17;;;;;;;0.90;0.57;;;;;;;12.06;82.96;151710.16;10490336;28;20090;-71
2023/10/28 17:37:19;;;;;;;3.03;0.73;;;;;;;12.26;80.38;151761.88;10508122;28;20515;-70
2023/10/28 17:42:21;;;;;;;1.60;0.80;;;;;;;12.20;82.12;151746.34;10508236;28;20036;-71
2023/10/28 17:47:23;;;;;;;1.10;0.90;;;;;;;11.97;84.38;151686.88;10508027;28;20045;-71
2023/10/28 17:52:25;;;;;;;2.45;0.75;;;;;;;11.80;85.35;151644.19;10490695;28;20044;-71
2023/10/28 17:57:27;;;;;;;1.02;0.80;;;;;;;11.75;86.71;151632.53;10508214;28;20052;-72
2023/10/28 18:02:29;;;;;;;1.77;1.10;;;;;;;11.80;87.16;151644.19;10489784;28;20049;-70
2023/10/28 18:07:35;;;;;;;2.55;0.90;;;;;;;11.89;86.47;151666.19;10506516;28;20102;-71
2023/10/28 18:12:38;;;;;;;;;;;;;;;11.90;86.90;151670.06;10487797;28;20049;-71
2023/10/28 18:17:40;;;;;;;2.95;0.80;;;;;;;11.87;86.57;151662.34;10505683;28;20367;-71
2023/10/28 18:22:42;;;;;;;2.55;1.02;;;;;;;11.88;86.77;151663.63;10507179;28;20102;-72
2023/10/28 18:27:45;;;;;;;0.85;0.63;;;;;;;11.96;86.14;151685.59;10509163;28;20072;-72
2023/10/28 18:32:47;;;;;;;1.08;0.63;;;;;;;11.95;86.35;151681.69;10491964;28;20048;-72
2023/10/28 18:37:49;;;;;;;1.20;0.70;;;;;;;11.86;87.30;151659.72;10511801;28;20046;-71
2023/10/28 18:42:53;;;;;;;3.53;1.52;;;;;;;11.90;87.07;151668.78;10505598;28;20044;-70
2023/10/28 18:47:55;;;;;;;2.47;0.93;;;;;;;11.91;87.08;151671.34;10507488;28;20045;-72
2023/10/28 18:52:57;;;;;;;2.30;1.00;;;;;;;12.10;85.50;151721.78;10506560;28;20115;-72
2023/10/28 18:57:59;;;;;;;1.88;0.70;;;;;;;12.27;84.11;151763.16;10506021;28;20044;-72
2023/10/28 19:03:01;;;;;;;1.55;0.50;;;;;;;12.25;84.47;151759.25;10504481;28;20075;-73
2023/10/28 19:08:03;;;;;;;1.55;0.60;;;;;;;12.24;84.44;151756.69;10487795;28;20134;-71
2023/10/28 19:13:05;;;;;;;1.45;0.60;;;;;;;12.29;83.60;151768.31;10507006;28;20033;-72
2023/10/28 19:18:07;;;;;;;1.33;0.40;;;;;;;12.38;83.09;151792.88;10507688;28;20049;-72
2023/10/28 19:23:12;;;;;;;1.50;0.40;;;;;;;12.28;82.40;151765.72;10502969;28;20106;-72
2023/10/28 19:28:15;;;;;;;0.90;0.40;;;;;;;12.11;85.09;151723.06;10503051;28;20059;-73
2023/10/28 19:33:17;;;;;;;0.60;0.38;;;;;;;12.04;86.11;151704.94;10485636;28;20113;-73
2023/10/28 19:38:20;;;;;;;1.73;0.50;;;;;;;11.94;87.73;151680.41;10504153;28;20102;-73
2023/10/28 19:43:22;;;;;;;1.65;0.55;;;;;;;11.77;90.03;151637.69;10507823;28;20044;-72
2023/10/28 19:48:26;;;;;;;1.35;0.60;;;;;;;11.77;89.64;151637.69;10508431;28;20059;-73
2023/10/28 19:53:28;;;;;;;1.10;0.50;;;;;;;11.58;92.66;151588.59;10508585;28;20462;-74
2023/10/28 19:58:31;;;;;;;1.55;0.52;;;;;;;11.69;91.24;151617.06;10508774;28;20055;-72
2023/10/28 20:03:35;;;;;;;2.05;0.60;;;;;;;11.70;91.51;151619.63;10507126;28;20036;-73
2023/10/28 20:08:38;;;;;;;1.73;0.80;;;;;;;11.55;92.13;151582.19;10487833;28;20076;-73
2023/10/28 20:13:39;;;;;;;1.20;0.40;;;;;;;11.44;93.81;151552.44;10489588;28;20036;-73
2023/10/28 20:18:42;;;;;;;0.93;0.52;;;;;;;11.19;95.52;151489.13;10508832;28;20522;-73
2023/10/28 20:23:44;;;;;;;1.48;0.80;;;;;;;10.88;98.94;151410.34;10509897;28;20033;-73
2023/10/28 20:28:46;;;;;;;1.85;0.70;;;;;;;10.71;100.00;151369.00;10490626;28;20051;-73
2023/10/28 20:33:48;;;;;;;2.78;0.95;;;;;;;10.53;100.00;151323.81;10506291;28;20056;-71
2023/10/28 20:38:50;;;;;;;1.63;0.90;;;;;;;10.41;100.00;151291.56;10513297;28;20075;-73
2023/10/28 20:43:52;;;;;;;1.88;1.10;;;;;;;10.28;100.00;151259.28;10495964;28;20404;-73
2023/10/28 20:48:55;;;;;;;1.98;1.15;;;;;;;10.24;100.00;151248.91;10494116;28;20064;-73
2023/10/28 20:53:57;;;;;;;1.95;1.10;;;;;;;10.26;100.00;151255.38;10489841;28;20080;-71
2023/10/28 20:58:58;;;;;;;2.85;1.20;;;;;;;10.35;100.00;151277.34;10507997;28;20485;-72
2023/10/28 21:04:00;;;;;;;1.77;0.95;;;;;;;10.41;100.00;151292.84;10507306;28;20075;-73
2023/10/28 21:09:03;;;;;;;1.45;0.90;;;;;;;10.23;100.00;151247.63;10507673;28;20445;-73
2023/10/28 21:14:05;;;;;;;5.40;0.93;;;;;;;10.39;100.00;151287.66;10506800;28;20093;-73
2023/10/28 21:19:06;;;;;;;2.28;1.42;;;;;;;10.27;100.00;151258.00;10506210;28;20468;-72
2023/10/28 21:24:08;;;;;;;1.60;1.00;;;;;;;9.99;100.00;151186.94;10506219;28;20072;-72
2023/10/28 21:29:10;;;;;;;1.92;1.05;;;;;;;9.80;100.00;151137.91;10505829;28;20123;-73
2023/10/28 21:34:12;;;;;;;1.90;1.20;;;;;;;9.54;100.00;151073.38;10506032;28;20053;-72
2023/10/28 21:39:16;;;;;;;1.60;1.00;;;;;;;9.57;100.00;151081.13;10505067;28;20472;-72
2023/10/28 21:44:17;;;;;;;1.55;0.90;;;;;;;9.47;100.00;151054.03;10507049;28;20400;-72
2023/10/28 21:49:19;;;;;;;1.52;1.02;;;;;;;9.18;100.00;150980.53;10505354;28;20041;-72
2023/10/28 21:54:21;;;;;;;2.17;1.00;;;;;;;9.03;100.00;150943.09;10507583;28;20045;-72
2023/10/28 21:59:23;;;;;;;2.30;1.40;;;;;;;9.04;100.00;150945.72;10506804;28;20044;-72
2023/10/28 22:04:25;;;;;;;3.05;1.20;;;;;;;8.98;100.00;150931.47;10507782;28;20045;-73
2023/10/28 22:09:27;;;;;;;1.88;1.15;;;;;;;9.32;100.00;151016.63;10505410;28;20086;-72
2023/10/28 22:14:30;;;;;;;2.03;1.08;;;;;;;9.44;100.00;151046.31;10485159;28;20052;-71
2023/10/28 22:19:31;;;;;;;3.08;1.30;;;;;;;9.13;100.00;150967.63;10503787;28;20492;-72
2023/10/28 22:24:33;;;;;;;2.63;1.10;;;;;;;9.03;100.00;150944.44;10503216;28;20119;-71
2023/10/28 22:29:36;;;;;;;1.13;0.80;;;;;;;9.03;100.00;150944.44;10503364;28;20052;-71
2023/10/28 22:34:38;;;;;;;2.00;1.08;;;;;;;9.22;100.00;150992.13;10506085;28;20045;-72
2023/10/28 22:39:41;;;;;;;1.83;0.98;;;;;;;8.81;100.00;150888.97;10505185;28;20492;-72
2023/10/28 22:44:43;;;;;;;2.65;1.25;;;;;;;8.94;100.00;150921.22;10503165;28;20044;-72
2023/10/28 22:49:46;;;;;;;1.48;0.98;;;;;;;8.92;100.00;150916.03;10502055;28;20064;-72
2023/10/28 22:54:47;;;;;;;1.15;0.82;;;;;;;8.97;100.00;150928.91;10501884;28;20451;-71
2023/10/28 22:59:50;;;;;;;1.52;0.85;;;;;;;8.76;100.00;150874.75;10501595;28;20476;-72
2023/10/28 23:04:52;;;;;;;1.63;1.00;;;;;;;8.64;100.00;150843.84;10501244;28;20047;-72